createdAt,value
2023-02-26T00:03:32.821Z,4.27
2023-02-26T00:08:34.453Z,3.80
2023-02-26T00:13:37.199Z,3.60
2023-02-26T00:18:39.221Z,4.00
2023-02-26T00:23:40.985Z,3.37
2023-02-26T00:28:43.167Z,3.40
2023-02-26T00:33:45.229Z,3.00
2023-02-26T00:38:56.778Z,3.80
2023-02-26T00:43:58.826Z,3.77
2023-02-26T00:49:09.530Z,3.90
2023-02-26T00:54:25.980Z,4.03
2023-02-26T00:59:27.707Z,4.37
2023-02-26T01:04:29.619Z,3.80
2023-02-26T01:09:36.397Z,4.30
2023-02-26T01:14:38.772Z,4.20
2023-02-26T01:19:58.197Z,4.63
2023-02-26T01:25:05.244Z,4.40
2023-02-26T01:30:08.489Z,4.30
2023-02-26T01:35:31.954Z,4.10
2023-02-26T01:40:54.837Z,3.77
2023-02-26T01:46:11.931Z,4.73
2023-02-26T01:51:14.174Z,4.33
2023-02-26T01:56:18.538Z,4.43
2023-02-26T02:01:20.358Z,3.90
2023-02-26T02:06:26.418Z,4.50
2023-02-26T02:11:28.330Z,4.63
2023-02-26T02:16:59.574Z,4.60
2023-02-26T02:22:22.501Z,4.50
2023-02-26T02:28:09.001Z,4.63
2023-02-26T02:33:15.159Z,4.00
2023-02-26T02:38:21.752Z,3.93
2023-02-26T02:43:28.286Z,3.90
2023-02-26T02:48:34.940Z,4.50
2023-02-26T02:53:47.523Z,4.20
2023-02-26T02:58:57.788Z,4.30
2023-02-26T03:04:11.422Z,4.23
2023-02-26T03:09:13.163Z,4.87
2023-02-26T03:14:16.254Z,4.20
2023-02-26T03:19:28.779Z,4.20
2023-02-26T03:24:45.000Z,4.67
2023-02-26T03:29:53.225Z,5.20
2023-02-26T03:35:16.453Z,4.50
2023-02-26T03:40:25.472Z,5.00
2023-02-26T03:45:34.583Z,4.67
2023-02-26T03:50:48.236Z,4.87
2023-02-26T03:56:12.169Z,5.23
2023-02-26T04:01:42.855Z,5.43
2023-02-26T04:06:47.466Z,5.33
2023-02-26T04:11:50.487Z,6.07
2023-02-26T04:16:53.252Z,5.33
2023-02-26T04:21:54.982Z,5.13
2023-02-26T04:26:56.788Z,4.37
2023-02-26T04:31:58.605Z,5.10
2023-02-26T04:37:00.394Z,4.87
2023-02-26T04:42:03.027Z,4.27
2023-02-26T04:47:04.963Z,4.73
2023-02-26T04:52:08.859Z,5.27
2023-02-26T04:57:12.236Z,4.53
2023-02-26T05:02:14.648Z,4.93
2023-02-26T05:07:19.441Z,4.33
2023-02-26T05:12:21.098Z,4.90
2023-02-26T05:17:23.520Z,4.50
2023-02-26T05:22:25.455Z,4.90
2023-02-26T05:27:27.227Z,5.13
2023-02-26T05:32:29.125Z,5.27
2023-02-26T05:37:31.830Z,5.27
2023-02-26T05:42:33.451Z,4.90
2023-02-26T05:47:35.922Z,4.43
2023-02-26T05:52:38.176Z,5.80
2023-02-26T05:57:39.957Z,4.80
2023-02-26T06:02:42.166Z,5.57
2023-02-26T06:07:44.101Z,5.13
2023-02-26T06:12:45.945Z,5.87
2023-02-26T06:17:47.749Z,6.00
2023-02-26T06:22:49.540Z,6.27
2023-02-26T06:27:51.664Z,6.27
2023-02-26T06:32:53.729Z,5.93
2023-02-26T06:37:56.568Z,5.73
2023-02-26T06:42:58.467Z,5.80
2023-02-26T06:48:00.292Z,6.30
2023-02-26T06:53:02.151Z,5.67
2023-02-26T06:58:03.986Z,5.23
2023-02-26T07:03:07.159Z,5.40
2023-02-26T07:08:09.625Z,5.57
2023-02-26T07:13:11.488Z,5.43
2023-02-26T07:18:13.384Z,5.47
2023-02-26T07:23:15.644Z,5.27
2023-02-26T07:28:17.631Z,5.70
2023-02-26T07:33:19.478Z,6.03
2023-02-26T07:38:21.371Z,5.57
2023-02-26T07:43:24.243Z,5.13
2023-02-26T07:48:26.169Z,5.17
2023-02-26T07:53:27.997Z,6.10
2023-02-26T07:58:29.841Z,5.83
2023-02-26T08:03:32.302Z,5.77
2023-02-26T08:08:34.830Z,5.57
2023-02-26T08:13:36.698Z,4.60
2023-02-26T08:18:38.522Z,4.87
2023-02-26T08:23:40.393Z,5.53
2023-02-26T08:28:42.240Z,4.53
2023-02-26T08:33:44.587Z,4.37
2023-02-26T08:38:46.387Z,4.10
2023-02-26T08:43:48.781Z,4.53
2023-02-26T08:48:50.587Z,4.20
2023-02-26T08:53:52.452Z,4.27
2023-02-26T08:58:54.350Z,4.00
2023-02-26T09:03:56.152Z,3.57
2023-02-26T09:08:57.988Z,3.70
2023-02-26T09:14:00.105Z,3.93
2023-02-26T09:19:01.895Z,3.83
2023-02-26T09:24:03.935Z,4.23
2023-02-26T09:29:05.754Z,3.67
2023-02-26T09:34:08.812Z,4.30
2023-02-26T09:39:11.794Z,3.90
2023-02-26T09:44:24.049Z,3.87
2023-02-26T09:49:28.877Z,4.45
2023-02-26T09:54:36.779Z,3.37
2023-02-26T09:59:38.830Z,4.55
2023-02-26T10:05:00.516Z,4.43
2023-02-26T10:10:26.200Z,4.40
2023-02-26T10:15:37.970Z,4.30
2023-02-26T10:20:49.096Z,4.23
2023-02-26T10:25:58.429Z,4.67
2023-02-26T10:31:12.340Z,4.87
2023-02-26T10:36:25.548Z,4.33
2023-02-26T10:41:31.522Z,4.23
2023-02-26T10:46:38.107Z,4.73
2023-02-26T10:51:40.769Z,4.10
2023-02-26T10:56:42.936Z,4.20
2023-02-26T11:01:45.476Z,4.03
2023-02-26T11:06:58.869Z,4.40
2023-02-26T11:12:14.069Z,4.82
2023-02-26T11:17:23.146Z,4.30
2023-02-26T11:22:33.832Z,5.15
2023-02-26T11:27:37.781Z,5.90
2023-02-26T11:32:39.783Z,5.10
2023-02-26T11:37:47.850Z,5.55
2023-02-26T11:42:54.119Z,5.43
2023-02-26T11:48:02.952Z,5.40
2023-02-26T11:53:08.425Z,5.47
2023-02-26T11:58:24.282Z,5.03
2023-02-26T12:03:33.438Z,4.50
2023-02-26T12:08:40.529Z,4.80
2023-02-26T12:13:45.460Z,4.90
2023-02-26T12:19:09.867Z,4.57
2023-02-26T12:24:15.518Z,5.22
2023-02-26T12:29:38.253Z,5.15
2023-02-26T12:35:02.215Z,4.82
2023-02-26T12:40:06.825Z,4.40
2023-02-26T12:45:39.628Z,5.00
2023-02-26T12:51:02.944Z,5.45
2023-02-26T12:56:15.974Z,5.80
2023-02-26T13:02:01.254Z,6.85
2023-02-26T13:07:10.736Z,7.72
2023-02-26T13:12:48.271Z,6.20
2023-02-26T13:17:56.061Z,6.18
2023-02-26T13:23:18.547Z,5.45
2023-02-26T13:28:23.254Z,5.90
2023-02-26T13:33:31.809Z,5.50
2023-02-26T13:39:25.037Z,6.22
2023-02-26T13:45:03.937Z,6.85
2023-02-26T13:50:39.062Z,8.88
2023-02-26T13:55:42.518Z,10.00
2023-02-26T14:00:58.340Z,13.25
2023-02-26T14:06:24.610Z,14.05
2023-02-26T14:11:44.531Z,14.27
2023-02-26T14:16:55.803Z,14.10
2023-02-26T14:22:02.314Z,13.40
2023-02-26T14:27:32.628Z,13.15
2023-02-26T14:32:47.170Z,12.68
2023-02-26T14:38:01.252Z,10.35
2023-02-26T14:43:06.533Z,9.02
2023-02-26T14:48:14.830Z,8.38
2023-02-26T14:53:31.784Z,9.40
2023-02-26T14:58:51.942Z,9.35
2023-02-26T15:04:14.883Z,8.40
2023-02-26T15:09:16.782Z,8.20
2023-02-26T15:14:18.580Z,7.40
2023-02-26T15:19:32.672Z,6.60
2023-02-26T15:24:34.509Z,6.38
2023-02-26T15:29:39.010Z,6.50
2023-02-26T15:34:48.872Z,5.70
2023-02-26T15:39:51.162Z,5.60
2023-02-26T15:44:57.130Z,6.37
2023-02-26T15:50:00.735Z,6.40
2023-02-26T15:55:05.946Z,6.13
2023-02-26T16:00:11.369Z,6.80
2023-02-26T16:05:18.457Z,6.32
2023-02-26T16:10:35.486Z,6.63
2023-02-26T16:15:40.027Z,5.40
2023-02-26T16:20:45.650Z,6.03
2023-02-26T16:25:54.962Z,5.18
2023-02-26T16:30:59.456Z,4.73
2023-02-26T16:36:16.046Z,5.43
2023-02-26T16:41:23.671Z,4.83
2023-02-26T16:46:43.915Z,4.83
2023-02-26T16:51:47.561Z,5.10
2023-02-26T16:56:58.944Z,6.80
2023-02-26T17:02:13.057Z,5.30
2023-02-26T17:07:30.517Z,4.67
2023-02-26T17:12:48.577Z,5.97
2023-02-26T17:17:50.376Z,7.10
2023-02-26T17:22:53.219Z,5.37
2023-02-26T17:27:55.686Z,6.13
2023-02-26T17:32:58.163Z,5.87
2023-02-26T17:38:01.227Z,5.40
2023-02-26T17:43:04.721Z,6.03
2023-02-26T17:48:07.564Z,7.00
2023-02-26T17:53:09.924Z,7.40
2023-02-26T17:58:16.311Z,9.67
2023-02-26T18:03:18.195Z,10.90
2023-02-26T18:08:32.147Z,9.00
2023-02-26T18:13:34.010Z,37.43
2023-02-26T18:18:35.838Z,15.70
2023-02-26T18:23:37.938Z,9.07
2023-02-26T18:28:39.861Z,7.03
2023-02-26T18:33:44.156Z,5.80
2023-02-26T18:38:46.007Z,7.13
2023-02-26T18:43:47.789Z,8.87
2023-02-26T18:48:49.604Z,10.17
2023-02-26T18:53:51.497Z,9.35
2023-02-26T18:58:53.292Z,9.73
2023-02-26T19:03:56.029Z,9.67
2023-02-26T19:09:02.646Z,9.27
2023-02-26T19:14:05.666Z,9.07
2023-02-26T19:19:11.209Z,8.37
2023-02-26T19:24:14.772Z,7.33
2023-02-26T19:29:20.044Z,6.87
2023-02-26T19:34:22.160Z,7.47
2023-02-26T19:39:24.616Z,6.83
2023-02-26T19:44:27.842Z,6.53
2023-02-26T19:49:30.165Z,5.90
2023-02-26T19:54:31.976Z,6.27
2023-02-26T19:59:34.012Z,5.87
2023-02-26T20:04:35.942Z,5.63
2023-02-26T20:09:37.728Z,5.87
2023-02-26T20:14:39.552Z,5.13
2023-02-26T20:19:41.393Z,5.57
2023-02-26T20:24:43.254Z,5.23
2023-02-26T20:29:45.658Z,5.30
2023-02-26T20:34:47.478Z,4.60
2023-02-26T20:39:49.378Z,4.90
2023-02-26T20:44:51.269Z,5.00
2023-02-26T20:49:53.128Z,5.27
2023-02-26T20:54:54.957Z,4.83
2023-02-26T20:59:56.776Z,5.40
2023-02-26T21:04:58.591Z,5.30
2023-02-26T21:10:00.497Z,5.40
2023-02-26T21:15:02.848Z,5.80
2023-02-26T21:20:06.097Z,5.50
2023-02-26T21:25:08.621Z,5.70
2023-02-26T21:30:12.332Z,5.93
2023-02-26T21:35:16.205Z,5.80
2023-02-26T21:40:18.282Z,5.63
2023-02-26T21:45:20.088Z,5.20
2023-02-26T21:50:22.082Z,4.50
2023-02-26T21:55:24.100Z,5.37
2023-02-26T22:00:26.290Z,5.07
2023-02-26T22:05:28.158Z,4.90
2023-02-26T22:10:29.991Z,5.20
2023-02-26T22:15:31.814Z,5.57
2023-02-26T22:20:33.626Z,4.80
2023-02-26T22:25:35.438Z,4.30
2023-02-26T22:30:37.845Z,4.67
2023-02-26T22:35:39.695Z,4.80
2023-02-26T22:40:41.522Z,4.43
2023-02-26T22:45:43.472Z,4.83
2023-02-26T22:50:45.289Z,4.57
2023-02-26T22:55:47.093Z,5.00
2023-02-26T23:00:49.004Z,6.50
2023-02-26T23:05:50.801Z,5.60
2023-02-26T23:11:00.935Z,6.23
2023-02-26T23:16:05.278Z,6.33
2023-02-26T23:21:08.159Z,5.40
2023-02-26T23:26:11.035Z,5.27
2023-02-26T23:31:12.947Z,5.47
2023-02-26T23:36:15.862Z,5.50
2023-02-26T23:41:17.780Z,5.43
2023-02-26T23:46:19.590Z,4.23
2023-02-26T23:51:21.430Z,5.07
2023-02-26T23:56:23.298Z,5.60
